Time;durP1;ratioP1;P1;durP2;ratioP2;P2;SDS_P1;SDS_P2;PMS_P1;PMS_P2;Temp;Humidity;BMP_temperature;BMP_pressure;BME280_temperature;BME280_humidity;BME280_pressure;Samples;Min_cycle;Max_cycle;Signal;HPM_P1;HPM_P2
2023/01/25 00:01:36;;;;;;;26.47;19.30;;;2.60;99.90;;;3.21;100.00;99492.50;5212992;28;20630;-62
2023/01/25 00:04:10;;;;;;;29.20;21.97;;;2.60;99.90;;;3.24;100.00;99502.03;5209386;28;20293;-61
2023/01/25 00:06:44;;;;;;;28.03;21.30;;;2.60;99.90;;;3.28;100.00;99483.97;5210783;28;20223;-62
2023/01/25 00:09:17;;;;;;;27.23;20.03;;;2.70;99.90;;;3.30;100.00;99482.50;5209599;28;20708;-61
2023/01/25 00:11:52;;;;;;;28.50;19.77;;;2.70;99.90;;;3.36;100.00;99493.28;5209053;28;20236;-61
2023/01/25 00:14:25;;;;;;;26.77;20.50;;;2.70;99.90;;;3.46;100.00;99493.56;5205834;28;20315;-62
2023/01/25 00:16:58;;;;;;;25.97;19.17;;;2.70;99.90;;;3.44;100.00;99494.16;5213358;28;20220;-61
2023/01/25 00:19:33;;;;;;;24.83;19.70;;;2.70;99.90;;;3.34;100.00;99495.63;5209961;28;20300;-62
2023/01/25 00:22:06;;;;;;;28.10;18.77;;;2.70;99.90;;;3.34;100.00;99499.78;5209776;28;20281;-61
2023/01/25 00:24:39;;;;;;;24.33;19.07;;;2.70;99.90;;;3.35;100.00;99489.88;5219662;28;20221;-61
2023/01/25 00:27:12;;;;;;;27.43;19.80;;;2.70;99.90;;;3.37;100.00;99484.97;5214365;28;20790;-62
2023/01/25 00:29:45;;;;;;;22.83;17.37;;;2.70;99.90;;;3.49;100.00;99483.81;5210337;28;20346;-61
2023/01/25 00:32:47;;;;;;;24.77;19.07;;;2.70;99.90;;;3.50;100.00;99483.09;5210265;28;20201;-61
2023/01/25 00:35:22;;;;;;;24.10;17.73;;;2.80;99.90;;;3.30;100.00;99474.94;5212151;28;20679;-61
2023/01/25 00:37:56;;;;;;;23.30;17.17;;;2.70;99.90;;;3.36;100.00;99483.19;5210044;28;20300;-61
2023/01/25 00:40:29;;;;;;;22.53;18.27;;;2.70;99.90;;;3.34;100.00;99469.47;5208994;28;20301;-62
2023/01/25 00:43:02;;;;;;;25.00;18.37;;;2.70;99.90;;;3.34;100.00;99477.06;5208745;28;20318;-61
2023/01/25 00:45:35;;;;;;;23.00;18.97;;;2.70;99.90;;;3.30;100.00;99478.34;5206045;28;20320;-62
2023/01/25 00:48:09;;;;;;;24.97;18.43;;;2.70;99.90;;;3.41;100.00;99474.50;5211749;28;20576;-62
2023/01/25 00:50:43;;;;;;;22.83;17.43;;;2.80;99.90;;;3.37;100.00;99465.66;5210646;28;20971;-61
2023/01/25 00:53:16;;;;;;;24.87;18.53;;;2.80;99.90;;;3.27;100.00;99472.06;5207242;28;20228;-61
2023/01/25 00:55:52;;;;;;;24.33;18.47;;;2.70;99.90;;;3.36;100.00;99475.59;5209724;28;20669;-61
2023/01/25 00:58:25;;;;;;;23.40;18.27;;;2.70;99.90;;;3.23;100.00;99470.78;5213148;28;20255;-61
2023/01/25 01:00:58;;;;;;;25.27;17.97;;;2.70;99.90;;;3.24;100.00;99469.19;5209650;28;20618;-61
2023/01/25 01:03:32;;;;;;;24.53;17.80;;;2.70;99.90;;;3.26;100.00;99470.25;5210789;28;20221;-62
2023/01/25 01:06:10;;;;;;;23.17;17.23;;;2.70;99.90;;;3.16;100.00;99468.34;5208559;28;20313;-60
2023/01/25 01:08:43;;;;;;;23.00;17.30;;;2.60;99.90;;;3.17;100.00;99471.00;5207151;28;20236;-62
2023/01/25 01:11:16;;;;;;;21.90;17.00;;;2.60;99.90;;;3.27;100.00;99467.00;5207025;28;20654;-60
2023/01/25 01:13:49;;;;;;;26.67;17.60;;;2.70;99.90;;;3.29;100.00;99466.44;5209012;28;20214;-61
2023/01/25 01:16:22;;;;;;;25.20;18.13;;;2.70;99.90;;;3.53;100.00;99467.34;5208571;28;20266;-62
2023/01/25 01:18:56;;;;;;;23.23;16.73;;;2.90;99.90;;;3.32;100.00;99466.78;5209337;28;20264;-61
2023/01/25 01:21:30;;;;;;;24.20;17.13;;;2.80;99.90;;;3.19;100.00;99472.84;5209571;28;20213;-61
2023/01/25 01:24:04;;;;;;;24.00;17.43;;;2.70;99.90;;;3.15;100.00;99467.44;5209131;28;20317;-61
2023/01/25 01:26:37;;;;;;;28.33;17.67;;;2.60;99.90;;;3.10;100.00;99467.66;5208474;28;20230;-62
2023/01/25 01:29:10;;;;;;;24.97;17.67;;;2.60;99.90;;;3.13;100.00;99468.00;5213304;28;20241;-61
2023/01/25 01:31:43;;;;;;;25.67;17.57;;;2.60;99.90;;;3.20;100.00;99467.94;5206934;28;20205;-61
2023/01/25 01:34:16;;;;;;;26.90;18.60;;;2.60;99.90;;;3.28;100.00;99471.31;5205771;28;20227;-61
2023/01/25 01:36:51;;;;;;;26.83;18.37;;;2.60;99.90;;;3.15;100.00;99458.97;5207159;28;20247;-61
2023/01/25 01:39:24;;;;;;;24.40;17.93;;;2.60;99.90;;;3.20;100.00;99460.34;5206146;28;20242;-62
2023/01/25 01:41:57;;;;;;;27.33;18.97;;;2.60;99.90;;;3.00;100.00;99460.66;5210258;28;20348;-61
2023/01/25 01:44:47;;;;;;;23.97;18.80;;;2.60;99.90;;;2.89;100.00;99468.66;5204854;28;20322;-62
2023/01/25 01:47:27;;;;;;;26.00;17.77;;;2.50;99.90;;;3.00;100.00;99463.19;5211119;28;20208;-62
2023/01/25 01:50:06;;;;;;;28.60;19.00;;;2.50;99.90;;;2.92;100.00;99461.44;5205973;28;20293;-61
2023/01/25 01:52:40;;;;;;;29.40;18.33;;;2.50;99.90;;;2.90;100.00;99471.38;5203132;28;20295;-61
2023/01/25 01:55:17;;;;;;;26.63;18.67;;;2.50;99.90;;;2.67;100.00;99460.31;5209391;28;20629;-61
2023/01/25 01:57:56;;;;;;;27.63;18.90;;;2.40;99.90;;;2.71;100.00;99463.31;5204602;28;20277;-61
2023/01/25 02:00:34;;;;;;;28.27;19.27;;;2.40;99.90;;;3.00;100.00;99464.81;5205761;28;20203;-61
2023/01/25 02:03:08;;;;;;;27.70;17.97;;;2.50;99.90;;;2.95;100.00;99461.78;5203414;28;20700;-62
2023/01/25 02:05:48;;;;;;;27.23;17.43;;;2.50;99.90;;;2.77;100.00;99457.19;5203705;28;20220;-61
2023/01/25 02:08:24;;;;;;;24.97;18.10;;;2.40;99.90;;;2.83;100.00;99460.38;5204390;28;20582;-61
2023/01/25 02:10:59;;;;;;;27.37;18.07;;;2.40;99.90;;;2.57;100.00;99460.88;5204633;28;20826;-61
2023/01/25 02:13:33;;;;;;;22.77;17.00;;;2.30;99.90;;;2.75;100.00;99459.53;5205976;28;20240;-61
2023/01/25 02:16:14;;;;;;;28.57;17.97;;;2.30;99.90;;;2.81;100.00;99466.91;5211482;28;20672;-62
2023/01/25 02:18:47;;;;;;;26.13;17.00;;;2.40;99.90;;;2.84;100.00;99464.75;5205283;28;20608;-61
2023/01/25 02:21:21;;;;;;;24.37;16.77;;;2.40;99.90;;;2.89;100.00;99461.06;5205783;28;20316;-62
2023/01/25 02:24:01;;;;;;;26.57;16.83;;;2.50;99.90;;;2.80;100.00;99463.47;5210073;28;20839;-61
2023/01/25 02:26:36;;;;;;;26.33;16.90;;;2.40;99.90;;;2.86;100.00;99456.59;5209084;28;20655;-61
2023/01/25 02:29:09;;;;;;;27.63;17.73;;;2.40;99.90;;;2.88;100.00;99454.25;5204302;28;20646;-61
2023/01/25 02:31:44;;;;;;;25.53;17.17;;;2.40;99.90;;;2.85;100.00;99454.78;5205399;28;20215;-64
2023/01/25 02:34:18;;;;;;;26.97;17.57;;;2.40;99.90;;;2.85;100.00;99453.91;5207632;28;20228;-60
2023/01/25 02:36:51;;;;;;;26.60;18.27;;;2.40;99.90;;;2.56;100.00;99454.03;5204512;28;20296;-62
2023/01/25 02:39:25;;;;;;;26.30;17.17;;;2.30;99.90;;;2.71;100.00;99459.91;5206077;28;20681;-61
2023/01/25 02:41:59;;;;;;;20.97;16.03;;;2.30;99.90;;;2.85;100.00;99448.84;5205097;28;20448;-61
2023/01/25 02:44:33;;;;;;;23.33;15.70;;;2.30;99.90;;;2.78;100.00;99452.31;5209233;28;21902;-61
2023/01/25 02:47:06;;;;;;;23.97;16.67;;;2.30;99.90;;;2.66;100.00;99448.38;5208738;28;20324;-61
2023/01/25 02:49:39;;;;;;;21.73;15.80;;;2.30;99.90;;;2.80;100.00;99440.75;5205315;28;20601;-61
2023/01/25 02:52:12;;;;;;;24.03;16.23;;;2.30;99.90;;;2.81;100.00;99440.03;5206799;28;20220;-61
2023/01/25 02:54:45;;;;;;;20.93;14.73;;;2.30;99.90;;;2.76;100.00;99440.25;5206852;28;20344;-62
2023/01/25 02:57:20;;;;;;;19.50;15.10;;;2.30;99.90;;;2.84;100.00;99442.00;5205107;28;20475;-60
2023/01/25 02:59:55;;;;;;;21.20;14.90;;;2.30;99.90;;;2.83;100.00;99440.19;5202973;28;20204;-60
2023/01/25 03:02:28;;;;;;;20.47;15.10;;;2.30;99.90;;;2.99;100.00;99443.72;5205364;28;20215;-62
2023/01/25 03:05:01;;;;;;;20.23;14.50;;;2.40;99.90;;;2.93;100.00;99443.03;5205066;28;20231;-62
2023/01/25 03:07:34;;;;;;;19.00;14.87;;;2.40;99.90;;;2.82;100.00;99438.41;5208028;28;20229;-62
2023/01/25 03:10:09;;;;;;;18.73;14.33;;;2.40;99.90;;;2.81;100.00;99432.47;5208467;28;20251;-61
2023/01/25 03:12:43;;;;;;;21.60;14.77;;;2.30;99.90;;;2.96;100.00;99433.28;5208074;28;20312;-61
2023/01/25 03:15:16;;;;;;;20.27;14.57;;;2.40;99.90;;;3.13;100.00;99428.47;5206772;28;20256;-61
2023/01/25 03:17:49;;;;;;;18.90;14.00;;;2.50;99.90;;;3.01;100.00;99429.63;5208711;28;20668;-62
2023/01/25 03:20:22;;;;;;;21.87;15.67;;;2.40;99.90;;;2.91;100.00;99424.28;5210226;28;20260;-61
2023/01/25 03:22:56;;;;;;;17.97;14.17;;;2.40;99.90;;;2.99;100.00;99422.63;5205640;28;20214;-62
2023/01/25 03:25:29;;;;;;;20.83;14.90;;;2.40;99.90;;;2.85;100.00;99414.38;5207646;28;20276;-61
2023/01/25 03:28:03;;;;;;;18.33;14.33;;;2.40;99.90;;;3.04;100.00;99417.34;5207602;28;20316;-61
2023/01/25 03:30:36;;;;;;;21.50;14.80;;;2.50;99.90;;;2.90;100.00;99409.88;5209044;28;20208;-62
2023/01/25 03:33:09;;;;;;;16.53;13.53;;;2.40;99.90;;;3.04;100.00;99411.41;5203889;28;20274;-61
2023/01/25 03:35:42;;;;;;;18.67;14.33;;;2.50;99.90;;;2.96;100.00;99405.50;5212005;28;20260;-62
2023/01/25 03:38:15;;;;;;;20.03;13.93;;;2.40;99.90;;;2.77;100.00;99401.63;5211781;28;20211;-61
2023/01/25 03:40:49;;;;;;;17.27;14.07;;;2.30;99.90;;;2.82;100.00;99398.91;5207184;28;20312;-60
2023/01/25 03:43:24;;;;;;;19.77;14.07;;;2.30;99.90;;;2.97;100.00;99404.75;5210441;28;20242;-61
2023/01/25 03:46:00;;;;;;;19.23;13.87;;;2.40;99.90;;;2.92;100.00;99410.94;5211472;28;20632;-60
2023/01/25 03:48:33;;;;;;;18.23;13.17;;;2.40;99.90;;;2.81;100.00;99402.16;5208204;28;20206;-59
2023/01/25 03:51:06;;;;;;;18.30;14.30;;;2.30;99.90;;;2.77;100.00;99391.53;5214274;28;20213;-61
2023/01/25 03:53:39;;;;;;;18.13;14.20;;;2.30;99.90;;;2.77;100.00;99400.00;5207933;28;20232;-62
2023/01/25 03:56:18;;;;;;;18.47;12.50;;;2.30;99.90;;;2.69;100.00;99399.19;5206315;28;20299;-61
2023/01/25 03:58:53;;;;;;;17.73;12.73;;;2.20;99.90;;;2.77;100.00;99399.13;5207068;28;20239;-62
2023/01/25 04:01:26;;;;;;;16.63;12.93;;;2.30;99.90;;;2.73;100.00;99402.03;5211669;28;20702;-62
2023/01/25 04:03:59;;;;;;;16.67;12.93;;;2.30;99.90;;;2.81;100.00;99396.22;5210468;28;20223;-62
2023/01/25 04:06:32;;;;;;;15.93;13.07;;;2.30;99.90;;;2.86;100.00;99398.53;5210540;28;20268;-61
2023/01/25 04:09:06;;;;;;;17.07;13.00;;;2.30;99.90;;;2.71;100.00;99394.28;5209788;28;20260;-61
2023/01/25 04:11:39;;;;;;;15.90;13.17;;;2.30;99.90;;;2.74;100.00;99393.72;5211684;28;20630;-61
2023/01/25 04:14:14;;;;;;;16.30;12.63;;;2.30;99.90;;;2.78;100.00;99399.31;5207432;28;20693;-61
2023/01/25 04:16:47;;;;;;;12.70;11.40;;;2.30;99.90;;;2.88;100.00;99398.69;5209908;28;20311;-61
2023/01/25 04:19:20;;;;;;;15.17;11.77;;;2.30;99.90;;;2.85;99.45;99390.78;5207825;28;20569;-61
2023/01/25 04:21:53;;;;;;;14.90;12.37;;;2.30;99.90;;;2.92;99.87;99391.63;5212396;28;20229;-61
2023/01/25 04:24:26;;;;;;;15.63;12.07;;;2.30;99.90;;;2.79;98.93;99392.63;5209547;28;20217;-60
2023/01/25 04:26:59;;;;;;;14.77;11.03;;;2.30;99.90;;;2.66;99.67;99381.16;5208550;28;20202;-62
2023/01/25 04:29:34;;;;;;;13.80;11.37;;;2.20;99.90;;;2.67;98.82;99387.09;5210507;28;20225;-61
2023/01/25 04:32:13;;;;;;;14.47;10.73;;;2.20;99.90;;;2.67;99.52;99389.63;5213170;28;20695;-58
2023/01/25 04:34:46;;;;;;;13.37;11.10;;;2.20;99.90;;;2.82;99.50;99382.88;5214773;28;20436;-61
2023/01/25 04:37:19;;;;;;;12.57;10.57;;;2.30;99.90;;;2.95;97.77;99386.03;5209452;28;20200;-61
2023/01/25 04:39:52;;;;;;;12.37;10.00;;;2.40;99.90;;;2.89;97.81;99385.31;5204838;28;20202;-59
2023/01/25 04:42:25;;;;;;;12.33;9.97;;;2.40;99.90;;;2.59;98.88;99378.66;5208426;28;20214;-60
2023/01/25 04:45:00;;;;;;;12.67;10.17;;;2.20;99.90;;;2.79;98.52;99382.53;5206383;28;20364;-59
2023/01/25 04:47:33;;;;;;;13.20;10.47;;;2.30;99.90;;;2.69;97.85;99376.47;5205847;28;20511;-60
2023/01/25 04:50:06;;;;;;;12.00;10.00;;;2.30;99.90;;;2.76;98.15;99380.56;5209836;28;20298;-61
2023/01/25 04:52:39;;;;;;;13.17;10.93;;;2.30;99.90;;;2.59;98.15;99372.72;5209912;28;20652;-62
2023/01/25 04:55:13;;;;;;;12.67;11.13;;;2.20;99.90;;;2.51;99.96;99379.41;5212890;28;20205;-59
2023/01/25 04:57:48;;;;;;;12.97;10.20;;;2.10;99.90;;;2.51;100.00;99370.97;5206972;28;20231;-61
2023/01/25 05:00:23;;;;;;;12.40;10.00;;;2.10;99.90;;;2.63;99.53;99375.78;5212827;28;20462;-60
2023/01/25 05:02:56;;;;;;;12.10;10.87;;;2.20;99.90;;;2.66;99.76;99368.53;5206811;28;20204;-58
2023/01/25 05:05:30;;;;;;;11.87;9.53;;;2.20;99.90;;;2.71;99.43;99374.97;5205863;28;20264;-60
2023/01/25 05:08:03;;;;;;;13.97;10.30;;;2.20;99.90;;;2.84;99.35;99366.28;5205776;28;20229;-58
2023/01/25 05:10:36;;;;;;;13.40;10.87;;;2.30;99.90;;;2.77;98.07;99366.28;5207846;28;20201;-62
2023/01/25 05:13:09;;;;;;;13.07;10.53;;;2.20;99.90;;;2.76;97.88;99359.47;5208735;28;20258;-62
2023/01/25 05:15:43;;;;;;;13.20;10.30;;;2.30;99.90;;;2.66;98.69;99362.56;5207640;28;20241;-61
2023/01/25 05:18:16;;;;;;;12.80;10.70;;;2.20;99.90;;;2.42;99.09;99369.19;5204733;28;20220;-57
2023/01/25 05:20:55;;;;;;;12.47;9.97;;;2.10;99.90;;;2.62;98.67;99363.84;5206978;28;20240;-59
2023/01/25 05:23:28;;;;;;;13.70;11.07;;;2.20;99.90;;;2.68;98.69;99369.59;5209154;28;20285;-60
2023/01/25 05:28:52;;;;;;;13.50;10.67;;;2.20;99.90;;;2.70;98.48;99364.72;5214764;28;20221;-59
2023/01/25 05:31:26;;;;;;;14.60;10.80;;;2.20;99.90;;;2.73;97.93;99366.69;5208092;28;20332;-59
2023/01/25 05:33:59;;;;;;;12.73;10.20;;;2.20;99.90;;;2.70;97.70;99370.66;5213395;28;20212;-58
2023/01/25 05:36:32;;;;;;;11.37;9.63;;;2.20;99.90;;;2.70;98.38;99369.78;5213864;28;20203;-57
2023/01/25 05:39:07;;;;;;;13.60;10.20;;;2.20;99.90;;;2.70;98.37;99365.63;5208805;28;20221;-59
2023/01/25 05:41:40;;;;;;;12.73;11.13;;;2.20;99.90;;;2.88;97.02;99361.72;5206227;28;20712;-60
2023/01/25 05:44:13;;;;;;;12.90;10.80;;;2.30;99.90;;;2.85;96.91;99361.38;5209909;28;20217;-59
2023/01/25 05:46:48;;;;;;;12.43;10.23;;;2.30;99.90;;;2.79;97.54;99362.31;5207372;28;20889;-58
2023/01/25 05:49:21;;;;;;;12.43;10.73;;;2.30;99.90;;;2.82;98.46;99362.66;5207514;28;20904;-59
2023/01/25 05:51:54;;;;;;;12.83;10.57;;;2.30;99.90;;;2.79;98.19;99357.28;5207825;28;20332;-59
2023/01/25 05:54:27;;;;;;;12.97;10.80;;;2.30;99.90;;;2.70;97.42;99365.63;5210627;28;20241;-59
2023/01/25 05:57:01;;;;;;;14.97;11.47;;;2.30;99.90;;;2.79;98.75;99357.28;5217860;28;20210;-59
2023/01/25 05:59:34;;;;;;;14.13;11.47;;;2.30;99.90;;;2.71;98.04;99358.94;5214080;28;20202;-58
2023/01/25 06:02:08;;;;;;;13.80;11.53;;;2.30;99.90;;;2.86;97.45;99357.22;5221116;28;20209;-59
2023/01/25 06:04:42;;;;;;;15.37;11.60;;;2.30;99.90;;;2.80;97.65;99354.00;5224311;28;20248;-60
2023/01/25 06:07:15;;;;;;;14.17;11.87;;;2.30;99.90;;;2.82;97.42;99350.03;5219406;28;20220;-59
2023/01/25 06:09:48;;;;;;;16.13;12.13;;;2.30;99.90;;;2.47;98.68;99347.91;5221908;28;20235;-59
2023/01/25 06:12:21;;;;;;;15.63;11.23;;;2.20;99.90;;;2.56;98.46;99348.03;5217163;28;20205;-58
2023/01/25 06:14:55;;;;;;;15.90;13.10;;;2.10;99.90;;;2.58;98.54;99340.66;5221970;28;20612;-59
2023/01/25 06:17:29;;;;;;;15.70;11.87;;;2.10;99.90;;;2.56;98.69;99337.94;5220589;28;20301;-58
2023/01/25 06:20:02;;;;;;;19.63;15.63;;;2.10;99.90;;;2.61;98.15;99341.00;5212152;28;20239;-58
2023/01/25 06:22:35;;;;;;;18.53;13.83;;;2.20;99.90;;;2.66;98.53;99340.78;5217126;28;20354;-59
2023/01/25 06:25:09;;;;;;;16.03;12.97;;;2.20;99.90;;;2.79;98.43;99342.13;5221902;28;20223;-58
2023/01/25 06:27:42;;;;;;;16.77;12.40;;;2.20;99.90;;;2.73;97.69;99341.47;5222258;28;20888;-59
2023/01/25 06:30:16;;;;;;;16.00;13.63;;;2.20;99.90;;;2.78;97.76;99345.41;5221970;28;20317;-58
2023/01/25 06:32:51;;;;;;;16.73;13.53;;;2.20;99.90;;;2.73;98.02;99341.47;5223003;28;20630;-58
2023/01/25 06:35:24;;;;;;;15.70;12.57;;;2.20;99.90;;;2.66;97.42;99337.31;5220012;28;20634;-59
2023/01/25 06:37:58;;;;;;;13.93;12.43;;;2.20;99.90;;;2.84;97.85;99343.53;5222620;28;20197;-58
2023/01/25 06:40:31;;;;;;;14.27;11.87;;;2.30;99.90;;;2.81;98.14;99335.63;5215258;28;20200;-59
2023/01/25 06:43:07;;;;;;;17.93;13.43;;;2.30;99.90;;;2.85;98.35;99340.28;5221968;28;20237;-59
2023/01/25 06:45:40;;;;;;;16.80;12.47;;;2.30;99.90;;;2.86;98.06;99334.50;5220086;28;20197;-60
2023/01/25 06:48:15;;;;;;;14.07;11.33;;;2.30;99.90;;;2.93;97.77;99337.88;5212890;28;20724;-58
2023/01/25 06:50:54;;;;;;;14.03;11.63;;;2.30;99.90;;;2.94;98.00;99339.66;5215473;28;20220;-59
2023/01/25 06:53:29;;;;;;;15.43;12.10;;;2.40;99.90;;;3.00;98.31;99338.53;5224165;28;20254;-59
2023/01/25 06:56:07;;;;;;;16.30;13.63;;;2.40;99.90;;;3.03;98.59;99329.66;5216224;28;20299;-58
2023/01/25 06:58:43;;;;;;;19.17;14.83;;;2.40;99.90;;;3.00;98.07;99336.91;5228513;28;20208;-58
2023/01/25 07:01:20;;;;;;;15.37;12.53;;;2.40;99.90;;;3.02;98.03;99332.94;5226083;28;20247;-60
2023/01/25 07:03:57;;;;;;;15.47;12.10;;;2.40;99.90;;;3.06;98.19;99329.09;5224705;28;20247;-61
2023/01/25 07:06:33;;;;;;;14.67;12.67;;;2.40;99.90;;;3.09;98.76;99320.25;5225163;28;20303;-60
2023/01/25 07:09:09;;;;;;;15.43;12.30;;;2.40;99.90;;;3.05;98.19;99328.22;5215800;28;20859;-61
2023/01/25 07:11:42;;;;;;;15.10;12.93;;;2.40;99.90;;;3.01;97.95;99318.53;5223268;28;20211;-61
2023/01/25 07:14:16;;;;;;;15.50;13.10;;;2.40;99.90;;;3.02;97.68;99321.94;5224209;28;20247;-60
2023/01/25 07:16:49;;;;;;;16.23;13.03;;;2.40;99.90;;;3.07;98.71;99321.72;5222481;28;20891;-61
2023/01/25 07:19:23;;;;;;;17.83;13.70;;;2.40;99.90;;;3.06;97.97;99314.88;5225746;28;20225;-60
2023/01/25 07:21:56;;;;;;;16.57;13.23;;;2.40;99.90;;;3.11;98.55;99316.25;5227203;28;20266;-61
2023/01/25 07:24:29;;;;;;;16.73;13.27;;;2.40;99.90;;;3.14;98.33;99321.63;5224343;28;20328;-59
2023/01/25 07:27:03;;;;;;;17.33;13.83;;;2.50;99.90;;;2.95;97.63;99315.34;5223667;28;20228;-61
2023/01/25 07:29:36;;;;;;;17.73;14.90;;;2.40;99.90;;;2.92;96.80;99315.88;5221976;28;20326;-61
2023/01/25 07:32:11;;;;;;;21.87;15.27;;;2.30;99.90;;;2.84;96.75;99321.72;5223130;28;20253;-61
2023/01/25 07:34:45;;;;;;;19.37;14.80;;;2.30;99.90;;;2.98;97.26;99324.88;5225139;28;20220;-61
2023/01/25 07:37:18;;;;;;;17.87;14.23;;;2.30;99.90;;;3.04;97.03;99326.44;5222934;28;20712;-62
2023/01/25 07:39:51;;;;;;;18.93;14.73;;;2.40;99.90;;;3.06;97.50;99330.03;5217463;28;20193;-61
2023/01/25 07:42:25;;;;;;;19.57;14.70;;;2.40;99.90;;;3.11;97.16;99325.47;5226949;28;20536;-62
2023/01/25 07:44:58;;;;;;;21.43;15.27;;;2.40;99.90;;;3.07;96.71;99321.72;5220211;28;20693;-61
2023/01/25 07:47:31;;;;;;;18.67;14.97;;;2.40;99.90;;;3.08;97.41;99313.41;5219941;28;20304;-61
2023/01/25 07:50:07;;;;;;;19.70;15.70;;;2.40;99.90;;;3.12;97.64;99310.50;5226451;28;20255;-61
2023/01/25 07:52:40;;;;;;;18.67;15.33;;;2.50;99.90;;;3.15;97.40;99298.19;5224320;28;20703;-61
2023/01/25 07:55:14;;;;;;;20.60;15.40;;;2.50;99.90;;;3.26;97.07;99303.50;5223122;28;20616;-61
2023/01/25 07:57:47;;;;;;;23.83;16.50;;;2.50;99.90;;;3.27;97.06;99301.16;5221349;28;20224;-61
2023/01/25 08:00:20;;;;;;;19.97;15.57;;;2.50;99.90;;;3.27;96.58;99311.25;5221170;28;20193;-61
2023/01/25 08:02:56;;;;;;;21.03;16.33;;;2.50;99.90;;;3.25;96.15;99309.28;5225326;28;20657;-61
2023/01/25 08:05:31;;;;;;;19.77;15.57;;;2.60;99.90;;;3.35;95.11;99312.09;5224858;28;20201;-62
2023/01/25 08:08:04;;;;;;;21.07;16.50;;;2.60;99.90;;;3.26;94.67;99306.03;5218405;28;20279;-61
2023/01/25 08:10:38;;;;;;;21.00;16.93;;;2.50;99.90;;;3.20;94.92;99307.88;5222850;28;20264;-62
2023/01/25 08:13:11;;;;;;;20.23;16.20;;;2.50;99.90;;;3.25;95.57;99312.72;5220798;28;20221;-62
2023/01/25 08:15:53;;;;;;;21.83;17.27;;;2.50;99.90;;;3.37;94.62;99315.66;5219359;28;20285;-62
2023/01/25 08:18:26;;;;;;;21.47;17.97;;;2.50;99.90;;;3.44;93.74;99310.56;5224543;28;20746;-61
2023/01/25 08:21:00;;;;;;;20.07;16.63;;;2.60;99.90;;;3.58;90.23;99314.56;5223822;28;20193;-61
2023/01/25 08:23:34;;;;;;;22.50;16.67;;;2.80;99.90;;;3.57;91.51;99308.59;5219142;28;20221;-61
2023/01/25 08:26:09;;;;;;;17.23;14.47;;;2.80;99.90;;;3.48;90.75;99311.78;5221037;28;20298;-62
2023/01/25 08:28:42;;;;;;;20.37;16.07;;;2.70;99.90;;;3.37;91.58;99316.56;5218696;28;20233;-61
2023/01/25 08:31:18;;;;;;;23.60;17.70;;;2.70;99.90;;;3.34;92.42;99317.84;5223870;28;20712;-61
2023/01/25 08:33:53;;;;;;;20.33;15.97;;;2.60;99.90;;;3.09;92.18;99315.22;5224031;28;20271;-61
2023/01/25 08:36:28;;;;;;;20.10;16.63;;;2.50;99.90;;;3.32;91.48;99309.22;5222594;28;20703;-61
2023/01/25 08:39:04;;;;;;;18.60;14.30;;;2.50;99.90;;;3.43;90.93;99306.22;5224289;28;20694;-62
2023/01/25 08:41:37;;;;;;;18.47;14.80;;;2.60;99.90;;;3.51;89.91;99302.88;5222290;28;20652;-61
2023/01/25 08:44:10;;;;;;;19.73;14.87;;;2.70;99.90;;;3.18;90.36;99305.22;5213163;28;20248;-62
2023/01/25 08:46:44;;;;;;;20.93;16.27;;;2.60;99.90;;;3.19;91.23;99306.09;5223137;28;20255;-61
2023/01/25 08:49:17;;;;;;;19.07;14.90;;;2.60;99.90;;;3.23;91.39;99298.13;5214871;28;20290;-61
2023/01/25 08:51:51;;;;;;;19.70;15.87;;;2.50;99.90;;;3.12;91.67;99302.03;5218546;28;20577;-61
2023/01/25 08:54:24;;;;;;;19.20;16.40;;;2.50;99.90;;;3.13;92.15;99299.66;5214678;28;20265;-61
2023/01/25 08:56:57;;;;;;;21.30;16.70;;;2.50;99.90;;;3.09;92.13;99301.66;5218348;28;20258;-61
2023/01/25 08:59:31;;;;;;;20.27;16.53;;;2.50;99.90;;;3.14;92.83;99296.38;5224815;28;20244;-61
2023/01/25 09:02:04;;;;;;;20.97;15.70;;;2.50;99.90;;;3.15;92.50;99294.78;5222968;28;20201;-61
2023/01/25 09:04:37;;;;;;;20.70;16.70;;;2.60;99.90;;;3.09;93.56;99296.59;5221153;28;20233;-61
2023/01/25 09:07:11;;;;;;;21.43;16.63;;;2.50;99.90;;;3.16;93.16;99297.44;5224173;28;20281;-62
2023/01/25 09:09:44;;;;;;;21.50;16.50;;;2.50;99.90;;;3.17;93.19;99294.19;5224264;28;20681;-61
2023/01/25 09:12:17;;;;;;;21.07;15.80;;;2.60;99.90;;;3.18;94.06;99287.53;5218909;28;20251;-62
2023/01/25 09:14:50;;;;;;;22.40;16.57;;;2.60;99.90;;;3.19;94.27;99290.94;5225406;28;20251;-61
2023/01/25 09:17:23;;;;;;;20.17;16.93;;;2.60;99.90;;;2.99;93.08;99289.66;5223008;28;20297;-62
2023/01/25 09:19:56;;;;;;;18.10;15.23;;;2.50;99.90;;;3.19;92.90;99275.78;5218282;28;20269;-62
2023/01/25 09:22:31;;;;;;;20.63;16.60;;;2.50;99.90;;;3.25;92.85;99274.81;5215326;28;20264;-61
2023/01/25 09:25:05;;;;;;;19.20;16.03;;;2.60;99.90;;;3.27;91.38;99278.41;5218005;28;20244;-61
2023/01/25 09:27:39;;;;;;;20.13;17.20;;;2.60;99.90;;;3.21;92.48;99274.34;5224305;28;20265;-61
2023/01/25 09:30:13;;;;;;;22.93;16.40;;;2.60;99.90;;;3.06;93.18;99274.47;5222876;28;20324;-61
2023/01/25 09:32:51;;;;;;;21.83;16.77;;;2.50;99.90;;;3.21;93.50;99264.22;5224080;28;20279;-61
2023/01/25 09:35:28;;;;;;;20.40;17.37;;;2.60;99.90;;;3.34;92.18;99272.38;5220520;28;20205;-61
2023/01/25 09:38:02;;;;;;;21.43;16.63;;;2.60;99.90;;;3.44;91.81;99270.13;5218463;28;20261;-61
2023/01/25 09:40:44;;;;;;;22.23;17.97;;;2.60;99.90;;;3.38;91.52;99265.31;5216166;28;20811;-61
2023/01/25 09:43:30;;;;;;;25.77;18.17;;;2.60;99.90;;;3.27;91.42;99264.88;5218126;28;20330;-60
2023/01/25 09:46:17;;;;;;;21.53;17.77;;;2.60;99.90;;;3.35;91.71;99257.41;5224323;28;20204;-61
2023/01/25 09:49:02;;;;;;;21.93;18.20;;;2.60;99.90;;;3.63;90.26;99264.50;5220530;28;20193;-61
2023/01/25 09:51:57;;;;;;;22.67;17.03;;;2.70;99.90;;;3.33;91.18;99268.06;5220440;28;20228;-62
2023/01/25 09:54:38;;;;;;;22.77;17.13;;;2.60;99.90;;;3.15;91.99;99265.34;5219343;28;20743;-61
2023/01/25 09:57:22;;;;;;;22.00;17.23;;;2.60;99.90;;;3.08;92.61;99275.50;5217675;28;20349;-58
2023/01/25 09:59:56;;;;;;;23.87;17.37;;;2.50;99.90;;;3.17;92.54;99268.91;5222901;28;20259;-61
2023/01/25 10:02:39;;;;;;;24.03;17.07;;;2.50;99.90;;;3.53;90.67;99266.03;5219980;28;20232;-59
2023/01/25 10:05:18;;;;;;;23.93;17.23;;;2.80;99.90;;;3.25;90.73;99261.28;5224525;28;20257;-58
2023/01/25 10:07:58;;;;;;;25.67;17.87;;;2.70;99.90;;;3.16;92.60;99267.13;5229772;28;20650;-58
2023/01/25 10:10:38;;;;;;;26.23;18.03;;;2.60;99.90;;;3.28;92.41;99262.50;5224492;28;20224;-59
2023/01/25 10:13:15;;;;;;;24.50;18.33;;;2.60;99.90;;;3.22;92.80;99260.97;5221825;28;20754;-60
2023/01/25 10:15:52;;;;;;;20.03;15.70;;;2.60;99.90;;;3.29;94.16;99265.94;5220016;28;20240;-61
2023/01/25 10:18:31;;;;;;;24.77;18.27;;;2.60;99.90;;;3.29;92.80;99255.81;5216875;28;20218;-60
2023/01/25 10:21:12;;;;;;;24.70;17.93;;;2.60;99.90;;;3.07;92.68;99263.63;5223977;28;20284;-61
2023/01/25 10:24:31;;;;;;;24.53;18.20;;;2.50;99.90;;;3.02;92.80;99262.22;5222111;28;20734;-58
2023/01/25 10:27:21;;;;;;;27.57;17.93;;;2.50;99.90;;;3.35;91.14;99253.97;5221397;28;20565;-60
2023/01/25 10:29:58;;;;;;;24.87;17.90;;;2.60;99.90;;;3.25;91.07;99241.06;5219656;28;20296;-61
2023/01/25 10:32:33;;;;;;;25.93;19.83;;;2.60;99.90;;;3.21;92.54;99239.84;5216649;28;20245;-60
2023/01/25 10:35:22;;;;;;;26.17;19.30;;;2.60;99.90;;;3.00;93.40;99243.47;5211468;28;20779;-62
2023/01/25 10:38:15;;;;;;;25.57;18.60;;;2.50;99.90;;;3.14;92.91;99237.38;5222218;28;20431;-59
2023/01/25 10:40:54;;;;;;;26.53;19.43;;;2.50;99.90;;;2.98;93.96;99244.97;5218082;28;20724;-61
2023/01/25 10:43:29;;;;;;;25.43;18.73;;;2.50;99.90;;;3.06;94.27;99235.66;5219230;28;20253;-58
2023/01/25 10:46:02;;;;;;;27.53;21.60;;;2.50;99.90;;;3.12;93.96;99238.88;5224058;28;20203;-59
2023/01/25 10:48:36;;;;;;;32.50;21.77;;;2.50;99.90;;;3.22;93.52;99231.53;5221530;28;20233;-57
2023/01/25 10:51:09;;;;;;;32.73;22.07;;;2.50;99.90;;;3.32;94.13;99230.88;5219724;28;20319;-59
2023/01/25 10:53:43;;;;;;;30.70;21.53;;;2.60;99.90;;;3.25;92.48;99221.75;5214381;28;20248;-59